createdAt,value
2023-02-27T00:02:47.879Z,81.78
2023-02-27T00:05:45.620Z,77.72
2023-02-27T00:08:43.349Z,81.80
2023-02-27T00:11:41.099Z,71.82
2023-02-27T00:14:38.852Z,75.70
2023-02-27T00:26:05.355Z,76.10
2023-02-27T00:29:04.237Z,75.78
2023-02-27T00:32:02.120Z,78.32
2023-02-27T00:34:59.892Z,76.63
2023-02-27T00:37:57.665Z,73.65
2023-02-27T00:40:56.656Z,75.55
2023-02-27T00:43:54.458Z,73.38
2023-02-27T00:46:52.349Z,87.75
2023-02-27T00:49:50.203Z,73.18
2023-02-27T00:52:48.072Z,76.05
2023-02-27T00:55:45.717Z,80.32
2023-02-27T00:58:43.485Z,80.78
2023-02-27T01:01:41.166Z,75.95
2023-02-27T01:04:39.037Z,79.53
2023-02-27T01:07:38.004Z,75.70
2023-02-27T01:10:35.687Z,76.82
2023-02-27T01:13:33.406Z,67.15
2023-02-27T01:16:31.439Z,74.93
2023-02-27T01:19:29.257Z,75.88
2023-02-27T01:22:27.256Z,78.80
2023-02-27T01:25:24.957Z,79.63
2023-02-27T01:28:22.845Z,82.05
2023-02-27T01:31:20.457Z,69.88
2023-02-27T01:38:41.144Z,78.47
2023-02-27T01:41:38.807Z,70.88
2023-02-27T01:45:11.890Z,82.65
2023-02-27T01:48:31.461Z,87.15
2023-02-27T01:51:35.098Z,76.10
2023-02-27T01:54:38.035Z,70.35
2023-02-27T01:57:37.001Z,80.45
2023-02-27T02:00:34.786Z,89.28
2023-02-27T02:03:38.402Z,85.47
2023-02-27T02:06:39.183Z,78.60
2023-02-27T02:09:41.999Z,77.38
2023-02-27T02:12:40.802Z,77.38
2023-02-27T02:15:45.895Z,80.70
2023-02-27T02:19:13.170Z,89.40
2023-02-27T02:22:29.540Z,73.65
2023-02-27T02:25:35.991Z,74.75
2023-02-27T02:28:58.374Z,87.32
2023-02-27T02:32:40.196Z,77.50
2023-02-27T02:38:53.645Z,73.47
2023-02-27T02:42:02.785Z,74.13
2023-02-27T02:45:36.805Z,83.78
2023-02-27T02:48:47.136Z,75.22
2023-02-27T02:52:03.241Z,80.25
2023-02-27T02:55:09.526Z,73.40
2023-02-27T02:58:13.325Z,77.50
2023-02-27T03:01:37.028Z,76.47
2023-02-27T03:04:37.129Z,71.93
2023-02-27T03:07:40.751Z,72.43
2023-02-27T03:10:54.986Z,77.55
2023-02-27T03:13:59.503Z,67.47
2023-02-27T03:17:02.814Z,80.55
2023-02-27T03:20:08.821Z,69.95
2023-02-27T03:23:12.850Z,66.95
2023-02-27T03:26:13.964Z,78.03
2023-02-27T03:29:17.308Z,71.82
2023-02-27T03:35:17.624Z,73.28
2023-02-27T03:38:33.893Z,77.10
2023-02-27T03:41:40.421Z,67.78
2023-02-27T03:44:47.034Z,75.55
2023-02-27T03:47:45.260Z,85.68
2023-02-27T03:50:42.964Z,74.82
2023-02-27T03:53:59.159Z,72.13
2023-02-27T03:57:05.543Z,75.53
2023-02-27T04:00:06.345Z,81.63
2023-02-27T04:03:06.298Z,74.93
2023-02-27T04:06:24.229Z,80.07
2023-02-27T04:09:47.130Z,75.68
2023-02-27T04:13:02.630Z,78.50
2023-02-27T04:16:16.186Z,84.72
2023-02-27T04:19:53.623Z,74.95
2023-02-27T04:23:03.349Z,80.20
2023-02-27T04:26:14.916Z,82.00
2023-02-27T04:29:38.558Z,77.07
2023-02-27T04:32:38.441Z,94.28
2023-02-27T04:35:53.466Z,82.28
2023-02-27T04:39:02.768Z,71.95
2023-02-27T04:42:13.960Z,70.15
2023-02-27T04:45:15.628Z,71.70
2023-02-27T04:48:26.192Z,80.30
2023-02-27T04:51:32.602Z,78.57
2023-02-27T04:54:39.506Z,85.47
2023-02-27T04:57:50.556Z,72.35
2023-02-27T05:00:55.563Z,75.22
2023-02-27T05:03:55.626Z,79.20
2023-02-27T05:06:55.856Z,88.40
2023-02-27T05:10:04.333Z,84.28
2023-02-27T05:13:10.773Z,78.95
2023-02-27T05:16:45.061Z,90.72
2023-02-27T05:19:44.480Z,92.65
2023-02-27T05:23:05.149Z,97.68
2023-02-27T05:26:14.700Z,87.28
2023-02-27T05:29:28.881Z,88.78
2023-02-27T05:32:34.094Z,87.13
2023-02-27T05:35:39.764Z,76.10
2023-02-27T05:38:50.216Z,80.28
2023-02-27T05:42:11.858Z,82.85
2023-02-27T05:45:14.900Z,93.17
2023-02-27T05:48:21.338Z,81.60
2023-02-27T05:51:21.638Z,83.03
2023-02-27T05:54:30.065Z,89.28
2023-02-27T05:57:52.173Z,85.47
2023-02-27T06:01:02.185Z,83.25
2023-02-27T06:04:00.183Z,91.82
2023-02-27T06:06:58.672Z,104.40
2023-02-27T06:09:56.980Z,100.93
2023-02-27T06:12:54.657Z,87.07
2023-02-27T06:15:52.590Z,88.63
2023-02-27T06:18:50.224Z,99.22
2023-02-27T06:21:47.937Z,96.97
2023-02-27T06:24:46.154Z,108.72
2023-02-27T06:27:43.882Z,100.85
2023-02-27T06:30:41.817Z,97.72
2023-02-27T06:33:39.668Z,106.00
2023-02-27T06:36:37.283Z,116.35
2023-02-27T06:39:34.942Z,113.50
2023-02-27T06:42:33.274Z,108.90
2023-02-27T06:45:31.299Z,116.82
2023-02-27T06:48:29.031Z,112.05
2023-02-27T06:51:26.787Z,102.63
2023-02-27T06:54:24.589Z,110.88
2023-02-27T06:57:22.428Z,102.72
2023-02-27T07:00:20.536Z,117.05
2023-02-27T07:03:18.193Z,109.82
2023-02-27T07:06:15.802Z,110.47
2023-02-27T07:09:13.855Z,106.80
2023-02-27T07:12:11.782Z,100.95
2023-02-27T07:15:10.582Z,95.63
2023-02-27T07:18:08.408Z,104.15
2023-02-27T07:21:06.533Z,99.18
2023-02-27T07:24:05.265Z,88.18
2023-02-27T07:27:03.011Z,94.05
2023-02-27T07:30:01.585Z,97.57
2023-02-27T07:32:59.566Z,83.32
2023-02-27T07:35:57.271Z,89.30
2023-02-27T07:38:55.049Z,83.38
2023-02-27T07:41:52.803Z,83.50
2023-02-27T07:44:50.548Z,90.55
2023-02-27T07:47:49.104Z,95.18
2023-02-27T07:50:47.072Z,94.35
2023-02-27T07:53:44.670Z,104.78
2023-02-27T07:56:42.411Z,94.18
2023-02-27T07:59:41.685Z,95.40
2023-02-27T08:02:39.777Z,92.97
2023-02-27T08:05:37.534Z,107.18
2023-02-27T08:08:35.858Z,97.80
2023-02-27T08:11:33.599Z,97.63
2023-02-27T08:14:31.362Z,101.55
2023-02-27T08:17:28.971Z,105.35
2023-02-27T08:20:26.893Z,95.50
2023-02-27T08:23:24.536Z,109.25
2023-02-27T08:26:23.091Z,105.70
2023-02-27T08:29:20.831Z,95.18
2023-02-27T08:32:18.586Z,95.07
2023-02-27T08:35:34.779Z,88.93
2023-02-27T08:38:34.330Z,91.10
2023-02-27T08:41:32.097Z,100.20
2023-02-27T08:44:30.093Z,95.05
2023-02-27T08:47:27.897Z,96.28
2023-02-27T08:50:25.881Z,97.53
2023-02-27T08:53:23.754Z,102.00
2023-02-27T08:56:21.788Z,97.72
2023-02-27T08:59:19.574Z,87.38
2023-02-27T09:02:17.410Z,92.43
2023-02-27T09:05:15.411Z,107.90
2023-02-27T09:08:13.650Z,96.80
2023-02-27T09:11:14.309Z,104.88
2023-02-27T09:14:12.525Z,101.97
2023-02-27T09:17:10.228Z,93.85
2023-02-27T09:20:10.216Z,92.95
2023-02-27T09:23:08.464Z,92.22
2023-02-27T09:26:07.235Z,95.07
2023-02-27T09:29:05.019Z,98.32
2023-02-27T09:32:02.906Z,90.38
2023-02-27T09:35:00.959Z,92.45
2023-02-27T09:37:59.262Z,98.80
2023-02-27T09:40:57.661Z,91.88
2023-02-27T09:43:55.692Z,98.88
2023-02-27T09:46:54.478Z,89.35
2023-02-27T09:50:01.351Z,90.60
2023-02-27T09:52:59.708Z,93.88
2023-02-27T09:56:04.897Z,90.72
2023-02-27T09:59:26.442Z,89.20
2023-02-27T10:02:57.148Z,86.65
2023-02-27T10:06:28.863Z,94.05
2023-02-27T10:09:38.527Z,97.43
2023-02-27T10:12:53.870Z,98.40
2023-02-27T10:15:54.252Z,92.05
2023-02-27T10:19:12.011Z,98.22
2023-02-27T10:22:16.873Z,96.63
2023-02-27T10:25:30.660Z,88.07
2023-02-27T10:28:33.127Z,83.95
2023-02-27T10:31:35.219Z,96.32
2023-02-27T10:34:35.028Z,96.57
2023-02-27T10:37:33.396Z,95.25
2023-02-27T10:40:31.917Z,98.90
2023-02-27T10:43:29.879Z,106.82
2023-02-27T10:46:31.872Z,108.95
2023-02-27T10:49:32.904Z,98.93
2023-02-27T10:52:32.285Z,96.15
2023-02-27T10:55:32.837Z,95.78
2023-02-27T10:58:35.086Z,101.45
2023-02-27T11:01:56.868Z,93.45
2023-02-27T11:04:56.481Z,99.30
2023-02-27T11:07:56.454Z,106.72
2023-02-27T11:11:14.018Z,104.20
2023-02-27T11:14:29.138Z,108.35
2023-02-27T11:17:31.030Z,102.95
2023-02-27T11:20:41.018Z,116.43
2023-02-27T11:23:39.032Z,100.38
2023-02-27T11:26:41.058Z,108.35
2023-02-27T11:29:39.112Z,110.47
2023-02-27T11:32:46.931Z,105.50
2023-02-27T11:35:57.991Z,110.47
2023-02-27T11:38:57.895Z,106.50
2023-02-27T11:41:58.301Z,98.57
2023-02-27T11:45:01.474Z,99.47
2023-02-27T11:48:11.732Z,91.53
2023-02-27T11:51:37.671Z,88.47
2023-02-27T11:54:51.446Z,91.38
2023-02-27T11:57:55.095Z,94.45
2023-02-27T12:00:59.624Z,98.43
2023-02-27T12:04:10.765Z,93.05
2023-02-27T12:07:20.932Z,89.72
2023-02-27T12:10:23.559Z,99.50
2023-02-27T12:13:32.574Z,101.88
2023-02-27T12:16:45.857Z,92.90
2023-02-27T12:19:53.437Z,92.35
2023-02-27T12:22:54.620Z,94.40
2023-02-27T12:26:05.796Z,93.75
2023-02-27T12:29:31.732Z,97.55
2023-02-27T12:32:50.540Z,100.18
2023-02-27T12:35:56.785Z,98.25
2023-02-27T12:38:55.122Z,86.13
2023-02-27T12:42:21.852Z,91.78
2023-02-27T12:45:50.499Z,90.18
2023-02-27T12:49:20.586Z,96.68
2023-02-27T12:52:47.786Z,91.82
2023-02-27T12:55:55.619Z,89.55
2023-02-27T12:59:23.989Z,80.05
2023-02-27T13:02:53.022Z,85.20
2023-02-27T13:06:02.320Z,94.20
2023-02-27T13:09:18.954Z,100.07
2023-02-27T13:12:50.935Z,96.53
2023-02-27T13:16:01.657Z,97.00
2023-02-27T13:19:14.733Z,92.57
2023-02-27T13:22:27.978Z,101.30
2023-02-27T13:25:26.576Z,92.05
2023-02-27T13:28:28.004Z,89.72
2023-02-27T13:31:46.381Z,89.88
2023-02-27T13:34:49.820Z,91.15
2023-02-27T13:40:55.496Z,80.13
2023-02-27T13:43:58.733Z,97.32
2023-02-27T13:47:16.372Z,94.28
2023-02-27T13:50:44.225Z,82.93
2023-02-27T13:53:42.159Z,83.75
2023-02-27T13:56:46.441Z,89.57
2023-02-27T13:59:52.674Z,81.78
2023-02-27T14:03:00.362Z,79.45
2023-02-27T14:06:02.872Z,83.10
2023-02-27T14:09:14.432Z,71.35
2023-02-27T14:12:44.315Z,72.23
2023-02-27T14:15:54.880Z,66.95
2023-02-27T14:18:57.346Z,59.08
2023-02-27T14:21:59.585Z,62.80
2023-02-27T14:25:05.760Z,60.95
2023-02-27T14:28:05.053Z,63.38
2023-02-27T14:31:06.759Z,59.05
2023-02-27T14:34:06.871Z,59.58
2023-02-27T14:37:11.809Z,69.00
2023-02-27T14:40:30.091Z,60.78
2023-02-27T14:43:41.154Z,56.55
2023-02-27T14:46:40.016Z,55.60
2023-02-27T14:49:38.059Z,63.65
2023-02-27T14:52:43.836Z,66.68
2023-02-27T14:55:41.526Z,63.50
2023-02-27T14:58:39.395Z,65.35
2023-02-27T15:01:37.991Z,60.25
2023-02-27T15:04:36.299Z,70.05
2023-02-27T15:07:35.542Z,68.88
2023-02-27T15:10:34.008Z,79.82
2023-02-27T15:13:34.930Z,94.30
2023-02-27T15:16:38.354Z,77.53
2023-02-27T15:19:37.707Z,83.45
2023-02-27T15:22:40.066Z,99.30
2023-02-27T15:25:40.341Z,97.15
2023-02-27T15:28:42.048Z,97.85
2023-02-27T15:31:39.890Z,99.25
2023-02-27T15:34:38.014Z,108.75
2023-02-27T15:37:36.916Z,101.38
2023-02-27T15:40:35.808Z,99.13
2023-02-27T15:43:33.895Z,101.38
2023-02-27T15:46:32.750Z,89.50
2023-02-27T15:49:30.782Z,86.93
2023-02-27T15:52:34.020Z,89.43
2023-02-27T15:55:35.501Z,88.55
2023-02-27T15:58:37.556Z,89.93
2023-02-27T16:01:35.575Z,79.53
2023-02-27T16:04:35.378Z,86.30
2023-02-27T16:07:41.262Z,79.50
2023-02-27T16:10:44.035Z,83.95
2023-02-27T16:13:42.490Z,80.10
2023-02-27T16:16:40.370Z,82.78
2023-02-27T16:19:41.633Z,77.57
2023-02-27T16:23:04.183Z,77.50
2023-02-27T16:29:34.546Z,93.47
2023-02-27T16:32:39.441Z,87.15
2023-02-27T16:35:40.170Z,100.43
2023-02-27T16:38:40.852Z,97.47
2023-02-27T16:41:41.745Z,95.03
2023-02-27T16:44:39.491Z,93.55
2023-02-27T16:47:37.362Z,97.53
2023-02-27T16:50:41.087Z,97.97
2023-02-27T16:53:38.957Z,98.82
2023-02-27T16:56:38.983Z,94.82
2023-02-27T16:59:41.758Z,101.35
2023-02-27T17:02:39.698Z,99.22
2023-02-27T17:05:37.676Z,105.82
2023-02-27T17:08:36.638Z,90.45
2023-02-27T17:11:34.570Z,94.55
2023-02-27T17:14:32.345Z,96.63
2023-02-27T17:17:30.969Z,105.13
2023-02-27T17:20:30.629Z,86.03
2023-02-27T17:23:28.634Z,94.38
2023-02-27T17:26:27.699Z,96.22
2023-02-27T17:29:28.724Z,97.47
2023-02-27T17:32:26.665Z,100.15
2023-02-27T17:35:31.527Z,92.38
2023-02-27T17:38:29.366Z,103.18
2023-02-27T17:41:30.598Z,92.88
2023-02-27T17:44:28.354Z,97.45
2023-02-27T17:47:26.452Z,97.03
2023-02-27T17:50:24.297Z,99.93
2023-02-27T17:53:22.224Z,84.10
2023-02-27T17:56:19.964Z,94.18
2023-02-27T17:59:17.853Z,98.50
2023-02-27T18:02:16.021Z,87.65
2023-02-27T18:05:15.518Z,78.55
2023-02-27T18:08:13.442Z,88.80
2023-02-27T18:11:13.088Z,90.65
2023-02-27T18:14:10.914Z,96.35
2023-02-27T18:17:12.692Z,103.97
2023-02-27T18:20:11.870Z,97.70
2023-02-27T18:23:10.372Z,81.45
2023-02-27T18:26:12.510Z,88.47
2023-02-27T18:29:18.324Z,64.38
2023-02-27T18:32:34.856Z,67.13
2023-02-27T18:35:33.141Z,60.70
2023-02-27T18:38:30.988Z,52.78
2023-02-27T18:41:31.702Z,49.35
2023-02-27T18:44:29.562Z,39.75
2023-02-27T18:47:30.355Z,43.30
2023-02-27T18:50:28.685Z,43.42
2023-02-27T18:53:26.805Z,36.40
2023-02-27T18:56:26.492Z,35.28
2023-02-27T18:59:24.525Z,46.10
2023-02-27T19:02:22.361Z,50.13
2023-02-27T19:05:24.254Z,49.38
2023-02-27T19:08:22.176Z,47.33
2023-02-27T19:11:25.898Z,57.13
2023-02-27T19:14:23.667Z,45.35
2023-02-27T19:17:21.731Z,37.58
2023-02-27T19:20:19.603Z,39.22
2023-02-27T19:23:20.537Z,43.15
2023-02-27T19:26:18.500Z,39.58
2023-02-27T19:29:17.253Z,40.50
2023-02-27T19:32:15.253Z,43.20
2023-02-27T19:35:15.708Z,46.88
2023-02-27T19:38:14.101Z,54.40
2023-02-27T19:41:17.603Z,53.45
2023-02-27T19:47:13.606Z,59.47
2023-02-27T19:50:12.228Z,57.63
2023-02-27T19:53:16.870Z,67.38
2023-02-27T19:56:17.999Z,72.03
2023-02-27T19:59:16.128Z,61.15
2023-02-27T20:02:14.043Z,65.13
2023-02-27T20:05:12.563Z,55.85
2023-02-27T20:08:10.444Z,58.63
2023-02-27T20:11:08.415Z,65.78
2023-02-27T20:14:06.487Z,57.33
2023-02-27T20:17:04.755Z,65.30
2023-02-27T20:20:02.756Z,68.35
2023-02-27T20:23:03.460Z,68.88
2023-02-27T20:26:02.567Z,66.53
2023-02-27T20:29:03.266Z,64.68
2023-02-27T20:32:01.329Z,77.68
2023-02-27T20:35:02.377Z,80.70
2023-02-27T20:38:00.160Z,61.38
2023-02-27T20:40:58.940Z,75.57
2023-02-27T20:43:56.729Z,64.55
2023-02-27T20:46:54.700Z,63.35
2023-02-27T20:49:52.434Z,66.28
2023-02-27T20:52:55.706Z,57.28
2023-02-27T20:55:54.575Z,57.17
2023-02-27T20:58:52.423Z,60.00
2023-02-27T21:01:53.495Z,61.63
2023-02-27T21:04:51.666Z,63.60
2023-02-27T21:07:49.739Z,62.10
2023-02-27T21:10:51.548Z,64.22
2023-02-27T21:13:51.934Z,58.60
2023-02-27T21:16:49.840Z,58.75
2023-02-27T21:19:47.604Z,53.97
2023-02-27T21:22:45.536Z,48.72
2023-02-27T21:25:44.821Z,56.95
2023-02-27T21:28:48.313Z,57.40
2023-02-27T21:34:46.803Z,48.72
2023-02-27T21:37:47.150Z,64.90
2023-02-27T21:40:45.003Z,62.40
2023-02-27T21:43:43.724Z,77.63
2023-02-27T21:46:41.733Z,85.78
2023-02-27T21:49:39.859Z,75.05
2023-02-27T21:52:37.740Z,85.50
2023-02-27T21:55:35.910Z,83.05
2023-02-27T21:58:33.960Z,80.20
2023-02-27T22:01:32.854Z,71.03
2023-02-27T22:04:30.985Z,60.15
2023-02-27T22:07:29.344Z,56.78
2023-02-27T22:10:27.258Z,52.65
2023-02-27T22:13:25.827Z,44.50
2023-02-27T22:16:26.578Z,62.83
2023-02-27T22:19:24.320Z,53.35
2023-02-27T22:22:22.233Z,65.50
2023-02-27T22:25:19.985Z,69.43
2023-02-27T22:28:17.775Z,77.68
2023-02-27T22:31:19.105Z,67.85
2023-02-27T22:34:21.031Z,71.68
2023-02-27T22:37:20.299Z,63.50
2023-02-27T22:40:19.344Z,53.22
2023-02-27T22:43:17.585Z,45.40
2023-02-27T22:46:18.760Z,36.72
2023-02-27T22:49:20.597Z,30.17
2023-02-27T22:52:18.548Z,32.38
2023-02-27T22:55:16.270Z,38.97
2023-02-27T22:58:14.120Z,42.55
2023-02-27T23:01:17.016Z,29.63
2023-02-27T23:04:17.593Z,49.92
2023-02-27T23:07:15.354Z,44.33
2023-02-27T23:10:13.295Z,39.53
2023-02-27T23:13:14.062Z,30.45
2023-02-27T23:16:14.293Z,32.33
2023-02-27T23:19:16.026Z,34.92
2023-02-27T23:22:13.846Z,20.20
2023-02-27T23:25:12.332Z,19.73
2023-02-27T23:28:14.589Z,16.02
2023-02-27T23:31:12.541Z,24.73
2023-02-27T23:34:11.033Z,18.70
2023-02-27T23:37:11.861Z,16.60
2023-02-27T23:40:10.458Z,15.93
2023-02-27T23:43:08.188Z,15.47
2023-02-27T23:46:09.355Z,15.07
2023-02-27T23:49:07.690Z,22.60
2023-02-27T23:52:05.693Z,30.07
2023-02-27T23:55:03.537Z,52.95
2023-02-27T23:58:03.033Z,60.43
